Historyczne dane pomiarowe

Dodano dane terminowe – wersja testowa.

Dane z okresu 1951-2019

Wersja bazy: 1.34 [2019-03-16, lista zmian], aktualizacja planowana na 2019-04-15

Dane meteo z obszaru Polski uzyskane na podstawie danych udostępnionych przez Instytut Meteorologii i Gospodarki Wodnej – Państwowy Instytut Badawczy.

 

Wybierz Datę:    

       

TemperaturaWilgotnośćWiatrCiśnienieOpadyŚniegCzas trwania zjawisk
 Stacja t tx tn tng RH VA  wxwx mslp ppp RRR   cm mm wxwxwxwxwxwxwx
1962-02-25 -5.3 -2.8-10.8 -9.9 92.8- 8.0 4.7---- 7.5-- 7---------
1962-02-26 -4.0 -1.8 -4.7 -2.6 85.8- 8.0 4.7---- 0.3-- 17---------
1962-02-27 -5.4 -4.0 -6.3 -4.4 79.3- 8.0 3.0---- 0.0-- 18---------
1962-02-28 -7.7 -4.8-14.7-15.1 85.5- 6.7 2.3---- 0.0-- 14---------
1962-03-01 -5.8 -2.8 -6.9 -3.9 84.3- 8.0 2.0---- 0.0-- 12---------
1962-03-02 -5.9 -4.1-13.5-18.1 83.5- 8.0 1.0---- 0.0-- 11---------
1962-03-03 -3.9 1.8 -6.5 -6.3 83.8- 4.0 1.0---- 0.0-- 10---------
1962-03-04 1.4 4.3 -7.9 -8.6 90.0- 6.3 1.7---- 2.9-- 8---------
1962-03-05 2.4 3.4 1.3 1.6100.0- 8.0 1.0---- 1.8-- 6---------
1962-03-06 1.8 8.2 -0.4 2.1 83.8- 7.7 4.0---- 0.0------------
1962-03-07 -1.7 0.2 -2.6 -1.8 79.5- 8.0 5.0---- 0.0------------
1962-03-08 -2.6 0.2 -6.5 -7.6 80.5- 4.7 3.3---- 0.0------------
1962-03-09 -3.1 -0.4 -4.3 -5.4 68.5- 3.7 3.7---- 0.0------------
1962-03-10 -2.2 1.7 -6.7 -8.1 58.5- 4.3 8.3---- 0.0------------
1962-03-11 1.0 4.2 -2.5 -2.9 85.3- 8.0 4.0---- 0.0------------
1962-03-12 0.8 2.4 -0.1 -1.5 93.8- 8.0 2.7---- 5.2------------
1962-03-13 -3.5 0.6 -6.1 -1.3 89.8- 7.7 4.7---- 3.6-- 6---------
1962-03-14 -6.6 -2.1 -8.1-12.4 71.8- 2.0 4.0---- 0.0-- 11---------
1962-03-15 -6.1 -4.4-10.2-13.6 84.8- 8.0 2.0---- 0.0-- 9---------
1962-03-16 -6.8 -5.0 -7.6 -7.5 88.5- 8.0 8.0---- 7.9-- 6---------
1962-03-17 -5.4 -4.6 -7.8 -7.4 88.3- 8.0 6.0---- 4.1-- 14---------
1962-03-18 -5.7 -1.5 -7.5 -7.3 68.8- 4.0 6.0---- 0.0-- 16---------
1962-03-19 -8.0 -1.5-13.2-20.4 88.0- 3.3 1.3---- 0.0-- 15---------
1962-03-20 -6.4 0.4-14.8-23.6 75.3- 3.7 0.7---- 0.0-- 14---------
1962-03-21 -7.7 -0.3-15.1-23.5 79.5- 1.7 1.7---- 0.0-- 14---------
1962-03-22 -4.4 -2.0-10.4-13.3 89.0- 8.0 4.0---- 3.0-- 13---------
1962-03-23 -0.6 0.8 -3.5 -3.6 96.5- 8.0 3.0---- 10.1-- 16---------
1962-03-24 -2.7 0.0 -4.0 -2.9 89.0- 6.7 2.0---- 0.4-- 23---------
1962-03-25 -8.8 -0.9-16.3-15.8 84.5- 0.0 1.0---- 0.0-- 20---------
1962-03-26 -9.4 -0.4-19.0-20.1 84.8- 0.0 1.3---- 0.0-- 17---------
198.7 ms

 

Źródłem pochodzenia danych jest Instytut Meteorologii i Gospodarki Wodnej – Państwowy Instytut Badawczy. Dane Instytutu Meteorologii i Gospodarki Wodnej – Państwowego Instytutu Badawczego zostały przetworzone.

Dane źródłowe można odnaleźć na stronie https://dane.imgw.pl